createdAt,value
2023-02-24T00:03:44.937Z,94.68
2023-02-24T00:08:47.313Z,94.90
2023-02-24T00:13:48.839Z,94.47
2023-02-24T00:18:51.056Z,94.90
2023-02-24T00:23:53.560Z,95.11
2023-02-24T00:28:55.894Z,95.17
2023-02-24T00:33:59.280Z,94.76
2023-02-24T00:39:09.342Z,94.25
2023-02-24T00:44:14.305Z,94.75
2023-02-24T00:49:18.443Z,94.88
2023-02-24T00:54:20.661Z,95.10
2023-02-24T00:59:23.995Z,95.29
2023-02-24T01:04:29.209Z,94.70
2023-02-24T01:09:32.213Z,94.74
2023-02-24T01:14:34.748Z,94.64
2023-02-24T01:19:36.707Z,95.24
2023-02-24T01:24:40.166Z,94.72
2023-02-24T01:29:41.610Z,94.59
2023-02-24T01:34:44.122Z,95.04
2023-02-24T01:39:46.130Z,95.45
2023-02-24T01:44:47.842Z,94.99
2023-02-24T01:49:53.871Z,94.82
2023-02-24T01:54:55.403Z,94.53
2023-02-24T02:00:09.375Z,94.60
2023-02-24T02:05:15.134Z,94.10
2023-02-24T02:10:18.371Z,94.70
2023-02-24T02:15:20.526Z,94.51
2023-02-24T02:20:22.257Z,94.26
2023-02-24T02:25:57.974Z,94.36
2023-02-24T02:31:08.127Z,95.03
2023-02-24T02:36:31.172Z,94.40
2023-02-24T02:41:43.339Z,94.60
2023-02-24T02:46:51.033Z,94.14
2023-02-24T02:51:57.295Z,94.60
2023-02-24T02:57:14.571Z,94.21
2023-02-24T03:02:21.035Z,94.57
2023-02-24T03:07:31.172Z,93.77
2023-02-24T03:12:34.049Z,94.97
2023-02-24T03:17:42.292Z,94.72
2023-02-24T03:22:53.353Z,94.67
2023-02-24T03:27:58.452Z,94.62
2023-02-24T03:33:16.614Z,93.92
2023-02-24T03:38:23.141Z,93.85
2023-02-24T03:43:31.742Z,93.85
2023-02-24T03:48:43.753Z,94.09
2023-02-24T03:54:05.601Z,95.10
2023-02-24T03:59:23.588Z,94.78
2023-02-24T04:04:37.943Z,94.96
2023-02-24T04:10:04.609Z,94.83
2023-02-24T04:15:29.008Z,94.87
2023-02-24T04:20:34.256Z,94.81
2023-02-24T04:25:40.665Z,94.83
2023-02-24T04:30:48.309Z,94.53
2023-02-24T04:35:50.519Z,94.94
2023-02-24T04:40:52.447Z,95.31
2023-02-24T04:45:55.556Z,95.14
2023-02-24T04:51:02.383Z,95.25
2023-02-24T04:56:08.759Z,94.86
2023-02-24T05:01:10.918Z,94.33
2023-02-24T05:06:17.556Z,94.73
2023-02-24T05:11:19.450Z,94.67
2023-02-24T05:16:22.118Z,94.58
2023-02-24T05:21:35.627Z,94.45
2023-02-24T05:26:41.525Z,94.43
2023-02-24T05:31:43.365Z,93.14
2023-02-24T05:36:45.791Z,93.24
2023-02-24T05:41:49.608Z,93.61
2023-02-24T05:46:58.560Z,94.24
2023-02-24T05:52:08.640Z,94.48
2023-02-24T05:57:12.981Z,94.35
2023-02-24T06:02:17.442Z,94.06
2023-02-24T06:07:29.517Z,93.89
2023-02-24T06:12:39.730Z,94.65
2023-02-24T06:17:41.277Z,94.81
2023-02-24T06:22:42.720Z,95.01
2023-02-24T06:27:44.184Z,95.61
2023-02-24T06:32:45.697Z,94.54
2023-02-24T06:37:47.871Z,93.51
2023-02-24T06:42:55.144Z,92.17
2023-02-24T06:47:58.183Z,91.92
2023-02-24T06:53:00.614Z,92.37
2023-02-24T06:58:08.229Z,92.17
2023-02-24T07:03:15.082Z,92.83
2023-02-24T07:08:18.815Z,92.36
2023-02-24T07:13:20.233Z,92.53
2023-02-24T07:18:22.819Z,90.87
2023-02-24T07:23:24.306Z,92.50
2023-02-24T07:28:25.722Z,92.93
2023-02-24T07:33:27.925Z,92.13
2023-02-24T07:38:29.373Z,92.53
2023-02-24T07:43:30.807Z,91.01
2023-02-24T07:48:32.196Z,88.47
2023-02-24T07:53:34.794Z,91.01
2023-02-24T07:58:36.245Z,92.71
2023-02-24T08:03:41.394Z,93.06
2023-02-24T08:08:57.769Z,92.91
2023-02-24T08:13:59.200Z,92.65
2023-02-24T08:19:03.319Z,93.02
2023-02-24T08:24:05.911Z,93.25
2023-02-24T08:29:07.361Z,93.30
2023-02-24T08:34:08.779Z,94.11
2023-02-24T08:39:10.196Z,93.88
2023-02-24T08:44:12.845Z,92.98
2023-02-24T08:49:16.924Z,91.98
2023-02-24T08:54:26.939Z,91.63
2023-02-24T08:59:54.612Z,92.08
2023-02-24T09:05:03.627Z,93.61
2023-02-24T09:10:17.592Z,92.76
2023-02-24T09:15:20.526Z,93.21
2023-02-24T09:20:43.191Z,93.12
2023-02-24T09:25:44.867Z,92.24
2023-02-24T09:30:51.593Z,93.30
2023-02-24T09:36:12.771Z,93.76
2023-02-24T09:41:31.562Z,93.77
2023-02-24T09:46:53.618Z,93.96
2023-02-24T09:52:00.549Z,94.72
2023-02-24T09:57:10.615Z,94.33
2023-02-24T10:02:44.221Z,93.80
2023-02-24T10:07:47.073Z,93.53
2023-02-24T10:12:52.891Z,93.89
2023-02-24T10:17:57.918Z,93.94
2023-02-24T10:23:32.681Z,93.12
2023-02-24T10:28:54.084Z,94.09
2023-02-24T10:34:10.977Z,93.88
2023-02-24T10:39:20.327Z,93.82
2023-02-24T10:44:24.204Z,92.20
2023-02-24T10:49:26.711Z,92.89
2023-02-24T10:54:52.964Z,93.21
2023-02-24T11:00:18.178Z,93.33
2023-02-24T11:05:38.604Z,92.62
2023-02-24T11:10:53.070Z,92.73
2023-02-24T11:16:14.096Z,93.90
2023-02-24T11:21:17.003Z,94.17
2023-02-24T11:26:21.800Z,93.87
2023-02-24T11:31:45.413Z,92.78
2023-02-24T11:36:57.253Z,92.52
2023-02-24T11:42:05.268Z,92.80
2023-02-24T11:47:15.282Z,92.31
2023-02-24T11:52:23.579Z,93.14
2023-02-24T11:57:41.577Z,93.60
2023-02-24T12:03:06.718Z,93.34
2023-02-24T12:08:29.657Z,92.58
2023-02-24T12:13:49.018Z,91.40
2023-02-24T12:18:59.070Z,91.81
2023-02-24T12:24:01.377Z,92.11
2023-02-24T12:29:29.949Z,91.48
2023-02-24T12:34:47.241Z,91.68
2023-02-24T12:39:58.521Z,92.20
2023-02-24T12:45:12.659Z,91.69
2023-02-24T12:50:23.488Z,92.52
2023-02-24T12:55:42.589Z,92.05
2023-02-24T13:00:57.499Z,92.97
2023-02-24T13:06:09.713Z,92.21
2023-02-24T13:11:39.794Z,92.86
2023-02-24T13:16:41.934Z,93.24
2023-02-24T13:21:43.663Z,93.46
2023-02-24T13:26:45.117Z,93.31
2023-02-24T13:31:52.155Z,93.49
2023-02-24T13:36:53.672Z,93.55
2023-02-24T13:42:20.363Z,93.16
2023-02-24T13:47:24.841Z,93.29
2023-02-24T13:52:32.594Z,93.20
2023-02-24T13:57:58.973Z,92.99
2023-02-24T14:03:00.789Z,93.15
2023-02-24T14:08:04.687Z,92.31
2023-02-24T14:13:27.563Z,91.57
2023-02-24T14:18:29.888Z,90.71
2023-02-24T14:23:33.986Z,91.40
2023-02-24T14:28:37.667Z,92.42
2023-02-24T14:33:42.617Z,93.36
2023-02-24T14:38:45.084Z,93.22
2023-02-24T14:43:46.514Z,93.56
2023-02-24T14:48:56.162Z,92.75
2023-02-24T14:54:01.965Z,92.44
2023-02-24T14:59:23.168Z,93.17
2023-02-24T15:04:33.532Z,92.54
2023-02-24T15:09:42.616Z,92.43
2023-02-24T15:14:51.710Z,92.46
2023-02-24T15:19:56.022Z,92.76
2023-02-24T15:25:12.548Z,92.26
2023-02-24T15:30:35.904Z,92.35
2023-02-24T15:35:46.653Z,92.35
2023-02-24T15:40:57.461Z,92.09
2023-02-24T15:45:58.999Z,91.79
2023-02-24T15:51:05.126Z,92.08
2023-02-24T15:56:06.577Z,91.17
2023-02-24T16:01:10.849Z,90.68
2023-02-24T16:06:21.190Z,91.10
2023-02-24T16:11:26.454Z,91.91
2023-02-24T16:16:28.200Z,92.28
2023-02-24T16:21:30.107Z,92.71
2023-02-24T16:26:36.103Z,93.28
2023-02-24T16:31:39.153Z,93.19
2023-02-24T16:36:42.384Z,93.22
2023-02-24T16:41:43.735Z,93.33
2023-02-24T16:46:45.836Z,93.34
2023-02-24T16:51:47.282Z,93.79
2023-02-24T16:56:49.645Z,93.55
2023-02-24T17:01:51.106Z,93.93
2023-02-24T17:06:52.617Z,93.46
2023-02-24T17:11:54.030Z,94.21
2023-02-24T17:16:55.618Z,93.58
2023-02-24T17:21:57.138Z,93.33
2023-02-24T17:26:59.783Z,93.97
2023-02-24T17:32:01.461Z,93.49
2023-02-24T17:37:04.246Z,93.29
2023-02-24T17:42:06.038Z,93.22
2023-02-24T17:47:08.918Z,93.32
2023-02-24T17:52:10.540Z,93.33
2023-02-24T17:57:12.000Z,93.54
2023-02-24T18:02:15.600Z,93.51
2023-02-24T18:07:17.640Z,93.49
2023-02-24T18:12:20.769Z,93.00
2023-02-24T18:17:23.351Z,93.30
2023-02-24T18:22:25.371Z,94.41
2023-02-24T18:27:27.092Z,94.37
2023-02-24T18:32:28.837Z,93.42
2023-02-24T18:37:30.481Z,93.35
2023-02-24T18:42:32.276Z,92.59
2023-02-24T18:47:33.680Z,93.35
2023-02-24T18:52:35.205Z,93.20
2023-02-24T18:57:36.986Z,94.11
2023-02-24T19:02:38.684Z,93.60
2023-02-24T19:07:40.253Z,93.20
2023-02-24T19:12:41.711Z,93.81
2023-02-24T19:17:44.096Z,92.57
2023-02-24T19:22:45.613Z,93.38
2023-02-24T19:27:49.760Z,93.14
2023-02-24T19:32:51.495Z,90.96
2023-02-24T19:37:53.136Z,90.32
2023-02-24T19:42:54.623Z,92.12
2023-02-24T19:47:56.211Z,93.50
2023-02-24T19:52:57.788Z,94.19
2023-02-24T19:57:59.427Z,93.94
2023-02-24T20:03:00.919Z,93.84
2023-02-24T20:08:02.605Z,93.85
2023-02-24T20:13:04.970Z,94.07
2023-02-24T20:18:08.658Z,94.21
2023-02-24T20:23:10.097Z,94.00
2023-02-24T20:28:11.767Z,94.07
2023-02-24T20:33:13.249Z,94.27
2023-02-24T20:38:15.231Z,94.68
2023-02-24T20:43:16.675Z,93.80
2023-02-24T20:48:18.459Z,94.00
2023-02-24T20:53:19.925Z,94.06
2023-02-24T20:58:21.430Z,94.14
2023-02-24T21:03:24.250Z,94.64
2023-02-24T21:08:25.676Z,94.68
2023-02-24T21:13:27.165Z,94.30
2023-02-24T21:18:28.668Z,94.37
2023-02-24T21:23:30.668Z,94.51
2023-02-24T21:28:32.330Z,94.38
2023-02-24T21:33:34.520Z,94.15
2023-02-24T21:38:36.976Z,93.77
2023-02-24T21:43:39.034Z,94.48
2023-02-24T21:48:41.626Z,94.10
2023-02-24T21:53:44.366Z,94.50
2023-02-24T21:58:48.895Z,94.51
2023-02-24T22:03:57.272Z,94.54
2023-02-24T22:09:00.039Z,94.51
2023-02-24T22:14:01.662Z,93.51
2023-02-24T22:19:03.995Z,94.58
2023-02-24T22:24:05.694Z,94.32
2023-02-24T22:29:07.741Z,93.88
2023-02-24T22:34:09.276Z,94.03
2023-02-24T22:39:10.948Z,93.80
2023-02-24T22:44:14.129Z,93.95
2023-02-24T22:49:15.482Z,94.10
2023-02-24T22:54:17.593Z,94.47
2023-02-24T22:59:18.991Z,94.57
2023-02-24T23:04:20.474Z,94.58
2023-02-24T23:09:21.924Z,92.38
2023-02-24T23:14:23.345Z,93.76
2023-02-24T23:19:25.519Z,94.29
2023-02-24T23:24:26.918Z,94.62
2023-02-24T23:29:30.654Z,94.24
2023-02-24T23:34:32.130Z,93.49
2023-02-24T23:39:33.548Z,93.87
2023-02-24T23:44:37.584Z,92.98
2023-02-24T23:49:48.275Z,89.24
2023-02-24T23:54:50.663Z,89.99
2023-02-24T23:59:52.196Z,90.80
